岡山グライダークラブ活動状況掲示板あなたは無料カウンター人目の訪問者です

岡山グライダークラブ
岡山市浦安南町639-1 岡南飛行場
 使用機:シャイベ式 SF25C型 ファルケ   JA2330
      ヴァレンティン式17E型 タイフーン  JA2342
 練習日:毎日曜日  クラブルーム:電話 086-265-1810
この掲示板は岡山グライダークラブの活動状況をお知らせする掲示板です。
!!!この掲示板は投稿規制をしています。!!!
クラブ関連各種情報は 岡山グライダークラブクラブルーム      を       .
  ブリーフイング情報は  岡山グライダークラブブリーフィングルーム  をご覧下さい。 .
※写真はクリックすると拡大して見ることが出来ます。
岡南飛行場へのアクセス等は 岡南飛行場管理事務所 をご覧ください。
クラブの ホームページ ができました。

 
09月29日
by OGC at 2019/9/29(日) 20:30:43 No.20190929202915  削除コメント
1024 x 768 x 78,326バイト
No.1

09月29日
本日の参加者
  会員      16名
  その他      1名


@本日の様子




METAR
RJBK 290000Z 36003KT 260V060 20KM FEW020CU SCT030CU BKN080AC 26/21 1016/3002
RJOB 290000Z 08003KT 030V120 9999 FEW015 BKN020 BKN/// 24/20 Q1017
RJOT 290000Z VRB02KT 9999 FEW010 BKN080 25/22 Q1017
RJOA 290000Z VRB02KT 9999 FEW010 SCT015 BKN070 23/19 Q1018
TAF
RJOB 282306Z 2900/3006 09004KT 9999 FEW015 SCT025
         TEMPO 2906/2909 TS FEW008 SCT020 FEW025CB BKN035
RJOT 282308Z 2900/3006 05006KT 9999 FEW025 SCT050
RJOA 282306Z 2900/3006 12004KT 9999 FEW025 SCT040
         TEMPO 2906/2909 TS FEW008 SCT020 FEW025CB BKN030
         BECMG 2909/2911 32005KT
         BECMG 3003/3006 13005KT

風もほとんどなく、本日は絶好の訓練日和。
訓練生は、サーマルトレーニングやTGLを行い、各自、課題の克服に専念し、ライセンサーは、直島方面に出かけたり、サーマルを探してウロチョロしたりしていたようです。


解散    18:00

1番機  10:20離陸 撤収機  17:30着陸 

SF25C JA2330 ファルケ     12Flt.4h25min  
17E   JA2342 タイフーン    05Flt.2h05min  
合計                    17Flt.6h30min

    << 戻る || ホームページ || 最新の掲示板へ